sensor_id;sensor_type;location;lat;lon;timestamp;temperature;humidity
1678;DHT22;6034;46.864;15.216;2022-12-29T00:01:27;3.40;99.90
1678;DHT22;6034;46.864;15.216;2022-12-29T00:03:54;3.30;99.90
1678;DHT22;6034;46.864;15.216;2022-12-29T00:06:22;3.40;99.90
1678;DHT22;6034;46.864;15.216;2022-12-29T00:08:49;3.20;99.90
1678;DHT22;6034;46.864;15.216;2022-12-29T00:11:17;3.20;99.90
1678;DHT22;6034;46.864;15.216;2022-12-29T00:13:44;3.20;99.90
1678;DHT22;6034;46.864;15.216;2022-12-29T00:16:29;3.10;99.90
1678;DHT22;6034;46.864;15.216;2022-12-29T00:18:56;3.20;99.90
1678;DHT22;6034;46.864;15.216;2022-12-29T00:21:25;3.30;99.90
1678;DHT22;6034;46.864;15.216;2022-12-29T00:24:24;3.20;99.90
1678;DHT22;6034;46.864;15.216;2022-12-29T00:27:10;3.00;99.90
1678;DHT22;6034;46.864;15.216;2022-12-29T00:29:54;3.10;99.90
1678;DHT22;6034;46.864;15.216;2022-12-29T00:32:39;3.10;99.90
1678;DHT22;6034;46.864;15.216;2022-12-29T00:35:24;3.10;99.90
1678;DHT22;6034;46.864;15.216;2022-12-29T00:37:54;3.00;99.90
1678;DHT22;6034;46.864;15.216;2022-12-29T00:40:39;3.10;99.90
1678;DHT22;6034;46.864;15.216;2022-12-29T00:43:23;3.10;99.90
1678;DHT22;6034;46.864;15.216;2022-12-29T00:46:08;3.10;99.90
1678;DHT22;6034;46.864;15.216;2022-12-29T00:48:35;3.20;99.90
1678;DHT22;6034;46.864;15.216;2022-12-29T00:51:20;3.20;99.90
1678;DHT22;6034;46.864;15.216;2022-12-29T00:53:48;3.20;99.90
1678;DHT22;6034;46.864;15.216;2022-12-29T00:56:16;3.20;99.90
1678;DHT22;6034;46.864;15.216;2022-12-29T00:58:43;3.20;99.90
1678;DHT22;6034;46.864;15.216;2022-12-29T01:01:11;3.10;99.90
1678;DHT22;6034;46.864;15.216;2022-12-29T01:03:38;3.10;99.90
1678;DHT22;6034;46.864;15.216;2022-12-29T01:06:06;3.00;99.90
1678;DHT22;6034;46.864;15.216;2022-12-29T01:08:33;3.10;99.90
1678;DHT22;6034;46.864;15.216;2022-12-29T01:11:02;3.10;99.90
1678;DHT22;6034;46.864;15.216;2022-12-29T01:13:28;2.90;99.90
1678;DHT22;6034;46.864;15.216;2022-12-29T01:15:55;3.00;99.90
1678;DHT22;6034;46.864;15.216;2022-12-29T01:18:23;3.10;99.90
1678;DHT22;6034;46.864;15.216;2022-12-29T01:20:50;3.10;99.90
1678;DHT22;6034;46.864;15.216;2022-12-29T01:23:18;3.10;99.90
1678;DHT22;6034;46.864;15.216;2022-12-29T01:25:44;1.90;99.90
1678;DHT22;6034;46.864;15.216;2022-12-29T01:28:13;3.00;99.90
1678;DHT22;6034;46.864;15.216;2022-12-29T01:30:40;3.00;99.90
1678;DHT22;6034;46.864;15.216;2022-12-29T01:33:07;3.00;99.90
1678;DHT22;6034;46.864;15.216;2022-12-29T01:35:34;3.00;99.90
1678;DHT22;6034;46.864;15.216;2022-12-29T01:38:01;2.90;99.90
1678;DHT22;6034;46.864;15.216;2022-12-29T01:40:28;3.00;99.90
1678;DHT22;6034;46.864;15.216;2022-12-29T01:42:55;3.00;99.90
1678;DHT22;6034;46.864;15.216;2022-12-29T01:45:23;3.00;99.90
1678;DHT22;6034;46.864;15.216;2022-12-29T01:47:52;3.00;99.90
1678;DHT22;6034;46.864;15.216;2022-12-29T01:50:20;2.90;99.90
1678;DHT22;6034;46.864;15.216;2022-12-29T01:52:50;2.90;99.90
1678;DHT22;6034;46.864;15.216;2022-12-29T01:55:18;2.90;99.90
1678;DHT22;6034;46.864;15.216;2022-12-29T01:57:45;2.90;99.90
1678;DHT22;6034;46.864;15.216;2022-12-29T02:00:14;2.90;99.90
1678;DHT22;6034;46.864;15.216;2022-12-29T02:02:43;2.90;99.90
1678;DHT22;6034;46.864;15.216;2022-12-29T02:05:14;2.80;99.90
1678;DHT22;6034;46.864;15.216;2022-12-29T02:07:42;2.80;99.90
1678;DHT22;6034;46.864;15.216;2022-12-29T02:10:10;2.80;99.90
1678;DHT22;6034;46.864;15.216;2022-12-29T02:12:38;2.80;99.90
1678;DHT22;6034;46.864;15.216;2022-12-29T02:15:05;2.80;99.90
1678;DHT22;6034;46.864;15.216;2022-12-29T02:17:37;2.60;99.90
1678;DHT22;6034;46.864;15.216;2022-12-29T02:20:23;2.80;99.90
1678;DHT22;6034;46.864;15.216;2022-12-29T02:22:57;2.80;99.90
1678;DHT22;6034;46.864;15.216;2022-12-29T02:25:44;2.80;99.90
1678;DHT22;6034;46.864;15.216;2022-12-29T02:28:27;2.70;99.90
1678;DHT22;6034;46.864;15.216;2022-12-29T02:31:00;2.70;99.90
1678;DHT22;6034;46.864;15.216;2022-12-29T02:33:33;2.70;99.90
1678;DHT22;6034;46.864;15.216;2022-12-29T02:36:05;2.40;99.90
1678;DHT22;6034;46.864;15.216;2022-12-29T02:38:40;2.60;99.90
1678;DHT22;6034;46.864;15.216;2022-12-29T02:41:11;2.70;99.90
1678;DHT22;6034;46.864;15.216;2022-12-29T02:43:43;2.50;99.90
1678;DHT22;6034;46.864;15.216;2022-12-29T02:46:15;2.40;99.90
1678;DHT22;6034;46.864;15.216;2022-12-29T02:48:46;2.60;99.90
1678;DHT22;6034;46.864;15.216;2022-12-29T02:51:15;2.60;99.90
1678;DHT22;6034;46.864;15.216;2022-12-29T02:53:45;2.70;99.90
1678;DHT22;6034;46.864;15.216;2022-12-29T02:56:30;2.70;99.90
1678;DHT22;6034;46.864;15.216;2022-12-29T02:58:57;2.60;99.90
1678;DHT22;6034;46.864;15.216;2022-12-29T03:01:29;2.60;99.90
1678;DHT22;6034;46.864;15.216;2022-12-29T03:04:05;2.50;99.90
1678;DHT22;6034;46.864;15.216;2022-12-29T03:06:40;2.70;99.90
1678;DHT22;6034;46.864;15.216;2022-12-29T03:09:20;2.80;99.90
1678;DHT22;6034;46.864;15.216;2022-12-29T03:11:51;2.80;99.90
1678;DHT22;6034;46.864;15.216;2022-12-29T03:14:37;2.80;99.90
1678;DHT22;6034;46.864;15.216;2022-12-29T03:17:26;2.80;99.90
1678;DHT22;6034;46.864;15.216;2022-12-29T03:19:56;2.80;99.90
1678;DHT22;6034;46.864;15.216;2022-12-29T03:22:26;2.70;99.90
1678;DHT22;6034;46.864;15.216;2022-12-29T03:24:57;2.80;99.90
1678;DHT22;6034;46.864;15.216;2022-12-29T03:27:27;2.70;99.90
1678;DHT22;6034;46.864;15.216;2022-12-29T03:29:57;2.60;99.90
1678;DHT22;6034;46.864;15.216;2022-12-29T03:32:27;2.80;99.90
1678;DHT22;6034;46.864;15.216;2022-12-29T03:34:55;2.80;99.90
1678;DHT22;6034;46.864;15.216;2022-12-29T03:37:23;2.60;99.90
1678;DHT22;6034;46.864;15.216;2022-12-29T03:39:52;2.50;99.90
1678;DHT22;6034;46.864;15.216;2022-12-29T03:42:20;2.40;99.90
1678;DHT22;6034;46.864;15.216;2022-12-29T03:44:49;2.50;99.90
1678;DHT22;6034;46.864;15.216;2022-12-29T03:47:19;2.60;99.90
1678;DHT22;6034;46.864;15.216;2022-12-29T03:49:48;2.60;99.90
1678;DHT22;6034;46.864;15.216;2022-12-29T03:52:15;2.60;99.90
1678;DHT22;6034;46.864;15.216;2022-12-29T03:54:43;2.60;99.90
1678;DHT22;6034;46.864;15.216;2022-12-29T03:57:10;2.90;99.90
1678;DHT22;6034;46.864;15.216;2022-12-29T03:59:37;2.90;99.90
1678;DHT22;6034;46.864;15.216;2022-12-29T04:02:04;2.90;99.90
1678;DHT22;6034;46.864;15.216;2022-12-29T04:04:31;2.80;99.90
1678;DHT22;6034;46.864;15.216;2022-12-29T04:07:00;2.70;99.90
1678;DHT22;6034;46.864;15.216;2022-12-29T04:09:27;2.70;99.90
1678;DHT22;6034;46.864;15.216;2022-12-29T04:11:55;2.60;99.90
1678;DHT22;6034;46.864;15.216;2022-12-29T04:14:22;2.50;99.90
1678;DHT22;6034;46.864;15.216;2022-12-29T04:16:49;2.30;99.90
1678;DHT22;6034;46.864;15.216;2022-12-29T04:19:16;2.40;99.90
1678;DHT22;6034;46.864;15.216;2022-12-29T04:21:43;2.40;99.90
1678;DHT22;6034;46.864;15.216;2022-12-29T04:24:11;1.30;99.90
1678;DHT22;6034;46.864;15.216;2022-12-29T04:26:38;1.30;99.90
1678;DHT22;6034;46.864;15.216;2022-12-29T04:29:05;1.60;99.90
1678;DHT22;6034;46.864;15.216;2022-12-29T04:31:32;1.90;99.90
1678;DHT22;6034;46.864;15.216;2022-12-29T04:33:59;2.10;99.90
1678;DHT22;6034;46.864;15.216;2022-12-29T04:36:26;2.00;99.90
1678;DHT22;6034;46.864;15.216;2022-12-29T04:38:53;2.00;99.90
1678;DHT22;6034;46.864;15.216;2022-12-29T04:41:22;1.80;99.90
1678;DHT22;6034;46.864;15.216;2022-12-29T04:43:49;2.10;99.90
1678;DHT22;6034;46.864;15.216;2022-12-29T04:46:16;2.10;99.90
1678;DHT22;6034;46.864;15.216;2022-12-29T04:48:43;2.10;99.90
1678;DHT22;6034;46.864;15.216;2022-12-29T04:51:10;2.10;99.90
1678;DHT22;6034;46.864;15.216;2022-12-29T04:53:37;2.00;99.90
1678;DHT22;6034;46.864;15.216;2022-12-29T04:56:04;2.20;99.90
1678;DHT22;6034;46.864;15.216;2022-12-29T04:58:33;2.30;99.90
1678;DHT22;6034;46.864;15.216;2022-12-29T05:01:00;2.30;99.90
1678;DHT22;6034;46.864;15.216;2022-12-29T05:03:27;2.40;99.90
1678;DHT22;6034;46.864;15.216;2022-12-29T05:05:54;2.40;99.90
1678;DHT22;6034;46.864;15.216;2022-12-29T05:08:21;2.30;99.90
1678;DHT22;6034;46.864;15.216;2022-12-29T05:10:49;2.30;99.90
1678;DHT22;6034;46.864;15.216;2022-12-29T05:13:17;2.30;99.90
1678;DHT22;6034;46.864;15.216;2022-12-29T05:15:47;2.10;99.90
1678;DHT22;6034;46.864;15.216;2022-12-29T05:18:14;2.30;99.90
1678;DHT22;6034;46.864;15.216;2022-12-29T05:20:41;2.20;99.90
1678;DHT22;6034;46.864;15.216;2022-12-29T05:23:08;2.20;99.90
1678;DHT22;6034;46.864;15.216;2022-12-29T05:25:35;2.20;99.90
1678;DHT22;6034;46.864;15.216;2022-12-29T05:28:02;2.20;99.90
1678;DHT22;6034;46.864;15.216;2022-12-29T05:30:29;2.30;99.90
1678;DHT22;6034;46.864;15.216;2022-12-29T05:32:58;2.30;99.90
1678;DHT22;6034;46.864;15.216;2022-12-29T05:35:25;2.40;99.90
1678;DHT22;6034;46.864;15.216;2022-12-29T05:37:52;2.50;99.90
1678;DHT22;6034;46.864;15.216;2022-12-29T05:40:21;2.40;99.90
1678;DHT22;6034;46.864;15.216;2022-12-29T05:42:48;2.50;99.90
1678;DHT22;6034;46.864;15.216;2022-12-29T05:45:15;2.50;99.90
1678;DHT22;6034;46.864;15.216;2022-12-29T05:47:42;2.00;99.90
1678;DHT22;6034;46.864;15.216;2022-12-29T05:50:10;1.80;99.90
1678;DHT22;6034;46.864;15.216;2022-12-29T05:52:37;1.90;99.90
1678;DHT22;6034;46.864;15.216;2022-12-29T05:55:05;2.00;99.90
1678;DHT22;6034;46.864;15.216;2022-12-29T05:57:32;1.90;99.90
1678;DHT22;6034;46.864;15.216;2022-12-29T05:59:59;1.90;99.90
1678;DHT22;6034;46.864;15.216;2022-12-29T06:02:26;1.90;99.90
1678;DHT22;6034;46.864;15.216;2022-12-29T06:04:53;1.80;99.90
1678;DHT22;6034;46.864;15.216;2022-12-29T06:07:22;2.00;99.90
1678;DHT22;6034;46.864;15.216;2022-12-29T06:09:49;2.00;99.90
1678;DHT22;6034;46.864;15.216;2022-12-29T06:12:16;2.00;99.90
1678;DHT22;6034;46.864;15.216;2022-12-29T06:14:42;2.10;99.90
1678;DHT22;6034;46.864;15.216;2022-12-29T06:17:10;2.10;99.90
1678;DHT22;6034;46.864;15.216;2022-12-29T06:19:37;2.20;99.90
1678;DHT22;6034;46.864;15.216;2022-12-29T06:22:04;2.30;99.90
1678;DHT22;6034;46.864;15.216;2022-12-29T06:24:34;2.30;99.90
1678;DHT22;6034;46.864;15.216;2022-12-29T06:27:01;2.40;99.90
1678;DHT22;6034;46.864;15.216;2022-12-29T06:29:28;2.30;99.90
1678;DHT22;6034;46.864;15.216;2022-12-29T06:31:55;2.40;99.90
1678;DHT22;6034;46.864;15.216;2022-12-29T06:34:23;2.40;99.90
1678;DHT22;6034;46.864;15.216;2022-12-29T06:36:51;2.40;99.90
1678;DHT22;6034;46.864;15.216;2022-12-29T06:39:18;2.50;99.90
1678;DHT22;6034;46.864;15.216;2022-12-29T06:41:46;2.40;99.90
1678;DHT22;6034;46.864;15.216;2022-12-29T06:44:13;2.50;99.90
1678;DHT22;6034;46.864;15.216;2022-12-29T06:46:40;2.50;99.90
1678;DHT22;6034;46.864;15.216;2022-12-29T06:49:07;2.40;99.90
1678;DHT22;6034;46.864;15.216;2022-12-29T06:51:34;2.40;99.90
1678;DHT22;6034;46.864;15.216;2022-12-29T06:54:01;2.40;99.90
1678;DHT22;6034;46.864;15.216;2022-12-29T06:56:28;2.30;99.90
1678;DHT22;6034;46.864;15.216;2022-12-29T06:58:57;2.50;99.90
1678;DHT22;6034;46.864;15.216;2022-12-29T07:01:25;2.50;99.90
1678;DHT22;6034;46.864;15.216;2022-12-29T07:03:52;2.60;99.90
1678;DHT22;6034;46.864;15.216;2022-12-29T07:06:19;2.70;99.90
1678;DHT22;6034;46.864;15.216;2022-12-29T07:08:46;2.70;99.90
1678;DHT22;6034;46.864;15.216;2022-12-29T07:11:13;2.70;99.90
1678;DHT22;6034;46.864;15.216;2022-12-29T07:13:41;2.80;99.90
1678;DHT22;6034;46.864;15.216;2022-12-29T07:16:09;2.80;99.90
1678;DHT22;6034;46.864;15.216;2022-12-29T07:18:37;2.90;99.90
1678;DHT22;6034;46.864;15.216;2022-12-29T07:21:04;2.80;99.90
1678;DHT22;6034;46.864;15.216;2022-12-29T07:23:31;2.80;99.90
1678;DHT22;6034;46.864;15.216;2022-12-29T07:25:59;2.90;99.90
1678;DHT22;6034;46.864;15.216;2022-12-29T07:28:26;2.90;99.90
1678;DHT22;6034;46.864;15.216;2022-12-29T07:30:53;3.00;99.90
1678;DHT22;6034;46.864;15.216;2022-12-29T07:33:21;3.10;99.90
1678;DHT22;6034;46.864;15.216;2022-12-29T07:35:48;3.20;99.90
1678;DHT22;6034;46.864;15.216;2022-12-29T07:38:15;3.30;99.90
1678;DHT22;6034;46.864;15.216;2022-12-29T07:40:43;3.40;99.90
1678;DHT22;6034;46.864;15.216;2022-12-29T07:43:10;3.50;99.90
1678;DHT22;6034;46.864;15.216;2022-12-29T07:45:37;3.50;99.90
1678;DHT22;6034;46.864;15.216;2022-12-29T07:48:04;3.60;99.90
1678;DHT22;6034;46.864;15.216;2022-12-29T07:50:34;3.70;99.90
1678;DHT22;6034;46.864;15.216;2022-12-29T07:53:01;3.70;99.90
1678;DHT22;6034;46.864;15.216;2022-12-29T07:55:29;3.80;99.90
1678;DHT22;6034;46.864;15.216;2022-12-29T07:57:56;3.90;99.90
1678;DHT22;6034;46.864;15.216;2022-12-29T08:00:23;4.10;99.90
1678;DHT22;6034;46.864;15.216;2022-12-29T08:02:50;4.20;99.90
1678;DHT22;6034;46.864;15.216;2022-12-29T08:05:17;4.30;99.90
1678;DHT22;6034;46.864;15.216;2022-12-29T08:07:46;4.50;99.90
1678;DHT22;6034;46.864;15.216;2022-12-29T08:10:13;4.70;99.90
1678;DHT22;6034;46.864;15.216;2022-12-29T08:12:40;4.70;99.90
1678;DHT22;6034;46.864;15.216;2022-12-29T08:15:09;4.80;99.90
1678;DHT22;6034;46.864;15.216;2022-12-29T08:17:36;4.90;99.90
1678;DHT22;6034;46.864;15.216;2022-12-29T08:20:04;4.90;99.90
1678;DHT22;6034;46.864;15.216;2022-12-29T08:22:31;5.00;99.90
1678;DHT22;6034;46.864;15.216;2022-12-29T08:24:59;5.00;99.90
1678;DHT22;6034;46.864;15.216;2022-12-29T08:27:26;5.10;99.90
1678;DHT22;6034;46.864;15.216;2022-12-29T08:29:54;5.00;99.90
1678;DHT22;6034;46.864;15.216;2022-12-29T08:32:21;5.00;99.90
1678;DHT22;6034;46.864;15.216;2022-12-29T08:34:48;5.00;99.90
1678;DHT22;6034;46.864;15.216;2022-12-29T08:37:16;5.20;99.90
1678;DHT22;6034;46.864;15.216;2022-12-29T08:39:43;5.00;99.90
1678;DHT22;6034;46.864;15.216;2022-12-29T08:42:12;5.00;99.90
1678;DHT22;6034;46.864;15.216;2022-12-29T08:44:39;5.00;99.90
1678;DHT22;6034;46.864;15.216;2022-12-29T08:47:08;5.20;99.90
1678;DHT22;6034;46.864;15.216;2022-12-29T08:49:36;5.20;99.90
1678;DHT22;6034;46.864;15.216;2022-12-29T08:52:04;5.20;99.90
1678;DHT22;6034;46.864;15.216;2022-12-29T08:54:31;5.40;99.90
1678;DHT22;6034;46.864;15.216;2022-12-29T08:56:59;5.50;99.90
1678;DHT22;6034;46.864;15.216;2022-12-29T08:59:28;5.60;99.90
1678;DHT22;6034;46.864;15.216;2022-12-29T09:01:55;5.60;99.90
1678;DHT22;6034;46.864;15.216;2022-12-29T09:04:23;5.70;99.90
1678;DHT22;6034;46.864;15.216;2022-12-29T09:06:50;5.70;99.90
1678;DHT22;6034;46.864;15.216;2022-12-29T09:09:18;5.80;99.90
1678;DHT22;6034;46.864;15.216;2022-12-29T09:11:45;5.80;99.90
1678;DHT22;6034;46.864;15.216;2022-12-29T09:14:13;5.80;99.90
1678;DHT22;6034;46.864;15.216;2022-12-29T09:16:42;5.60;99.90
1678;DHT22;6034;46.864;15.216;2022-12-29T09:19:26;5.90;99.90
1678;DHT22;6034;46.864;15.216;2022-12-29T09:21:54;5.90;99.90
1678;DHT22;6034;46.864;15.216;2022-12-29T09:24:21;5.90;99.90
1678;DHT22;6034;46.864;15.216;2022-12-29T09:26:48;5.80;99.90
1678;DHT22;6034;46.864;15.216;2022-12-29T09:29:15;5.90;99.90
1678;DHT22;6034;46.864;15.216;2022-12-29T09:31:44;5.70;99.90
1678;DHT22;6034;46.864;15.216;2022-12-29T09:34:12;6.00;99.90
1678;DHT22;6034;46.864;15.216;2022-12-29T09:36:39;6.00;99.90
1678;DHT22;6034;46.864;15.216;2022-12-29T09:41:37;6.10;99.90
1678;DHT22;6034;46.864;15.216;2022-12-29T09:44:13;6.10;99.90
1678;DHT22;6034;46.864;15.216;2022-12-29T09:46:47;5.90;99.90
1678;DHT22;6034;46.864;15.216;2022-12-29T09:49:21;5.90;99.90
1678;DHT22;6034;46.864;15.216;2022-12-29T09:51:52;5.80;99.90
1678;DHT22;6034;46.864;15.216;2022-12-29T09:54:28;6.10;99.90
1678;DHT22;6034;46.864;15.216;2022-12-29T09:56:58;6.10;99.90
1678;DHT22;6034;46.864;15.216;2022-12-29T09:59:36;6.30;99.90
1678;DHT22;6034;46.864;15.216;2022-12-29T10:02:27;6.20;99.90
1678;DHT22;6034;46.864;15.216;2022-12-29T10:04:57;6.20;99.90
1678;DHT22;6034;46.864;15.216;2022-12-29T10:07:35;6.30;99.90
1678;DHT22;6034;46.864;15.216;2022-12-29T10:10:14;6.50;99.90
1678;DHT22;6034;46.864;15.216;2022-12-29T10:12:58;6.40;99.90
1678;DHT22;6034;46.864;15.216;2022-12-29T10:15:39;6.50;99.90
1678;DHT22;6034;46.864;15.216;2022-12-29T10:18:23;6.70;99.90
1678;DHT22;6034;46.864;15.216;2022-12-29T10:21:00;6.80;99.90
1678;DHT22;6034;46.864;15.216;2022-12-29T10:23:33;6.90;99.90
1678;DHT22;6034;46.864;15.216;2022-12-29T10:26:03;6.90;99.90
1678;DHT22;6034;46.864;15.216;2022-12-29T10:28:35;6.90;99.90
1678;DHT22;6034;46.864;15.216;2022-12-29T10:31:09;7.00;99.90
1678;DHT22;6034;46.864;15.216;2022-12-29T10:33:41;7.10;99.90
1678;DHT22;6034;46.864;15.216;2022-12-29T10:36:16;7.10;99.90
1678;DHT22;6034;46.864;15.216;2022-12-29T10:38:51;7.10;99.90
1678;DHT22;6034;46.864;15.216;2022-12-29T10:41:23;7.20;99.90
1678;DHT22;6034;46.864;15.216;2022-12-29T10:43:54;7.20;99.90
1678;DHT22;6034;46.864;15.216;2022-12-29T10:46:23;7.30;99.90
1678;DHT22;6034;46.864;15.216;2022-12-29T10:48:53;7.40;99.90
1678;DHT22;6034;46.864;15.216;2022-12-29T10:51:22;7.50;99.90
1678;DHT22;6034;46.864;15.216;2022-12-29T10:53:53;9.10;99.90
1678;DHT22;6034;46.864;15.216;2022-12-29T10:56:28;7.30;99.90
1678;DHT22;6034;46.864;15.216;2022-12-29T10:58:59;7.40;99.90
1678;DHT22;6034;46.864;15.216;2022-12-29T11:01:33;7.40;99.90
1678;DHT22;6034;46.864;15.216;2022-12-29T11:04:14;7.40;99.90
1678;DHT22;6034;46.864;15.216;2022-12-29T11:06:45;7.40;99.90
1678;DHT22;6034;46.864;15.216;2022-12-29T11:09:15;7.30;99.90
1678;DHT22;6034;46.864;15.216;2022-12-29T11:11:43;7.30;99.90
1678;DHT22;6034;46.864;15.216;2022-12-29T11:14:13;7.20;99.90
1678;DHT22;6034;46.864;15.216;2022-12-29T11:16:41;7.30;99.90
1678;DHT22;6034;46.864;15.216;2022-12-29T11:19:22;7.60;99.90
1678;DHT22;6034;46.864;15.216;2022-12-29T11:21:51;7.60;99.90
1678;DHT22;6034;46.864;15.216;2022-12-29T11:24:21;7.70;99.90
1678;DHT22;6034;46.864;15.216;2022-12-29T11:26:50;7.70;99.90
1678;DHT22;6034;46.864;15.216;2022-12-29T11:29:27;7.70;99.90
1678;DHT22;6034;46.864;15.216;2022-12-29T11:31:56;7.80;99.90
1678;DHT22;6034;46.864;15.216;2022-12-29T11:34:31;7.80;99.90
1678;DHT22;6034;46.864;15.216;2022-12-29T11:37:01;7.80;99.90
1678;DHT22;6034;46.864;15.216;2022-12-29T11:39:34;7.80;99.90
1678;DHT22;6034;46.864;15.216;2022-12-29T11:42:03;7.70;99.90
1678;DHT22;6034;46.864;15.216;2022-12-29T11:44:36;7.80;99.90
1678;DHT22;6034;46.864;15.216;2022-12-29T11:47:20;7.80;99.90
1678;DHT22;6034;46.864;15.216;2022-12-29T11:49:53;7.80;99.90
1678;DHT22;6034;46.864;15.216;2022-12-29T11:52:23;7.80;99.90
1678;DHT22;6034;46.864;15.216;2022-12-29T11:54:52;8.00;99.90
1678;DHT22;6034;46.864;15.216;2022-12-29T11:57:20;8.00;99.90
1678;DHT22;6034;46.864;15.216;2022-12-29T11:59:50;7.90;99.90
1678;DHT22;6034;46.864;15.216;2022-12-29T12:02:46;7.90;99.90
1678;DHT22;6034;46.864;15.216;2022-12-29T12:05:22;7.90;99.90
1678;DHT22;6034;46.864;15.216;2022-12-29T12:07:56;7.90;99.90
1678;DHT22;6034;46.864;15.216;2022-12-29T12:10:27;7.90;99.90
1678;DHT22;6034;46.864;15.216;2022-12-29T12:13:01;7.80;99.90
1678;DHT22;6034;46.864;15.216;2022-12-29T12:15:35;8.00;99.90
1678;DHT22;6034;46.864;15.216;2022-12-29T12:18:09;8.10;99.90
1678;DHT22;6034;46.864;15.216;2022-12-29T12:20:49;8.30;99.90
1678;DHT22;6034;46.864;15.216;2022-12-29T12:23:36;8.40;99.90
1678;DHT22;6034;46.864;15.216;2022-12-29T12:26:09;8.40;99.90
1678;DHT22;6034;46.864;15.216;2022-12-29T12:28:37;8.50;99.90
1678;DHT22;6034;46.864;15.216;2022-12-29T12:31:10;8.50;99.90
1678;DHT22;6034;46.864;15.216;2022-12-29T12:33:41;8.50;99.90
1678;DHT22;6034;46.864;15.216;2022-12-29T12:36:16;8.50;99.90
1678;DHT22;6034;46.864;15.216;2022-12-29T12:38:50;8.60;99.90
1678;DHT22;6034;46.864;15.216;2022-12-29T12:41:21;8.60;99.90
1678;DHT22;6034;46.864;15.216;2022-12-29T12:43:53;8.70;99.90
1678;DHT22;6034;46.864;15.216;2022-12-29T12:46:36;8.70;99.90
1678;DHT22;6034;46.864;15.216;2022-12-29T12:49:21;8.80;99.90
1678;DHT22;6034;46.864;15.216;2022-12-29T12:51:57;8.90;99.90
1678;DHT22;6034;46.864;15.216;2022-12-29T12:54:32;8.80;99.90
1678;DHT22;6034;46.864;15.216;2022-12-29T12:57:04;8.90;99.90
1678;DHT22;6034;46.864;15.216;2022-12-29T12:59:37;8.80;99.90
1678;DHT22;6034;46.864;15.216;2022-12-29T13:02:13;8.90;99.90
1678;DHT22;6034;46.864;15.216;2022-12-29T13:04:57;9.00;99.90
1678;DHT22;6034;46.864;15.216;2022-12-29T13:07:31;9.00;99.90
1678;DHT22;6034;46.864;15.216;2022-12-29T13:10:15;9.00;99.90
1678;DHT22;6034;46.864;15.216;2022-12-29T13:12:45;9.00;99.90
1678;DHT22;6034;46.864;15.216;2022-12-29T13:15:18;9.00;99.90
1678;DHT22;6034;46.864;15.216;2022-12-29T13:17:50;9.10;99.90
1678;DHT22;6034;46.864;15.216;2022-12-29T13:20:21;9.10;99.90
1678;DHT22;6034;46.864;15.216;2022-12-29T13:22:54;9.10;99.90
1678;DHT22;6034;46.864;15.216;2022-12-29T13:25:28;9.10;99.90
1678;DHT22;6034;46.864;15.216;2022-12-29T13:27:59;9.20;99.90
1678;DHT22;6034;46.864;15.216;2022-12-29T13:30:28;9.20;99.90
1678;DHT22;6034;46.864;15.216;2022-12-29T13:32:57;9.20;99.90
1678;DHT22;6034;46.864;15.216;2022-12-29T13:35:34;9.20;99.90
1678;DHT22;6034;46.864;15.216;2022-12-29T13:38:09;9.30;99.90
1678;DHT22;6034;46.864;15.216;2022-12-29T13:40:38;9.20;99.90
1678;DHT22;6034;46.864;15.216;2022-12-29T13:43:07;9.20;99.90
1678;DHT22;6034;46.864;15.216;2022-12-29T13:45:35;9.20;99.90
1678;DHT22;6034;46.864;15.216;2022-12-29T13:48:03;9.30;99.90
1678;DHT22;6034;46.864;15.216;2022-12-29T13:50:33;9.30;99.90
1678;DHT22;6034;46.864;15.216;2022-12-29T13:53:02;9.30;99.90
1678;DHT22;6034;46.864;15.216;2022-12-29T13:55:34;9.30;99.90
1678;DHT22;6034;46.864;15.216;2022-12-29T13:58:03;9.30;99.90
1678;DHT22;6034;46.864;15.216;2022-12-29T14:00:33;9.30;99.90
1678;DHT22;6034;46.864;15.216;2022-12-29T14:03:12;9.20;99.90
1678;DHT22;6034;46.864;15.216;2022-12-29T14:05:43;9.30;99.90
1678;DHT22;6034;46.864;15.216;2022-12-29T14:08:14;9.30;99.90
1678;DHT22;6034;46.864;15.216;2022-12-29T14:10:47;9.30;99.90
1678;DHT22;6034;46.864;15.216;2022-12-29T14:13:16;9.30;99.90
1678;DHT22;6034;46.864;15.216;2022-12-29T14:15:44;9.30;99.90
1678;DHT22;6034;46.864;15.216;2022-12-29T14:18:13;9.20;99.90
1678;DHT22;6034;46.864;15.216;2022-12-29T14:20:46;9.20;99.90
1678;DHT22;6034;46.864;15.216;2022-12-29T14:23:15;9.30;99.90
1678;DHT22;6034;46.864;15.216;2022-12-29T14:28:36;9.10;99.90
1678;DHT22;6034;46.864;15.216;2022-12-29T14:31:04;9.10;99.90
1678;DHT22;6034;46.864;15.216;2022-12-29T14:33:32;9.00;99.90
1678;DHT22;6034;46.864;15.216;2022-12-29T14:38:43;8.90;99.90
1678;DHT22;6034;46.864;15.216;2022-12-29T14:41:24;8.90;99.90
1678;DHT22;6034;46.864;15.216;2022-12-29T14:43:58;8.80;99.90
1678;DHT22;6034;46.864;15.216;2022-12-29T14:46:40;8.80;99.90
1678;DHT22;6034;46.864;15.216;2022-12-29T14:49:08;8.90;99.90
1678;DHT22;6034;46.864;15.216;2022-12-29T14:51:40;8.90;99.90
1678;DHT22;6034;46.864;15.216;2022-12-29T14:56:49;8.70;99.90
1678;DHT22;6034;46.864;15.216;2022-12-29T14:59:18;8.70;99.90
1678;DHT22;6034;46.864;15.216;2022-12-29T15:01:47;8.70;99.90
1678;DHT22;6034;46.864;15.216;2022-12-29T15:04:15;8.80;99.90
1678;DHT22;6034;46.864;15.216;2022-12-29T15:06:43;8.70;99.90
1678;DHT22;6034;46.864;15.216;2022-12-29T15:09:14;8.40;99.90
1678;DHT22;6034;46.864;15.216;2022-12-29T15:11:47;8.40;99.90
1678;DHT22;6034;46.864;15.216;2022-12-29T15:14:30;8.50;99.90
1678;DHT22;6034;46.864;15.216;2022-12-29T15:16:57;8.30;99.90
1678;DHT22;6034;46.864;15.216;2022-12-29T15:19:25;8.60;99.90
1678;DHT22;6034;46.864;15.216;2022-12-29T15:21:52;8.50;99.90
1678;DHT22;6034;46.864;15.216;2022-12-29T15:24:19;8.60;99.90
1678;DHT22;6034;46.864;15.216;2022-12-29T15:26:47;8.60;99.90
1678;DHT22;6034;46.864;15.216;2022-12-29T15:32:11;8.30;99.90
1678;DHT22;6034;46.864;15.216;2022-12-29T15:34:42;8.30;99.90
1678;DHT22;6034;46.864;15.216;2022-12-29T15:37:14;8.30;99.90
1678;DHT22;6034;46.864;15.216;2022-12-29T15:39:43;8.10;99.90
1678;DHT22;6034;46.864;15.216;2022-12-29T15:42:16;8.10;99.90
1678;DHT22;6034;46.864;15.216;2022-12-29T15:44:47;8.20;99.90
1678;DHT22;6034;46.864;15.216;2022-12-29T15:47:15;7.90;99.90
1678;DHT22;6034;46.864;15.216;2022-12-29T15:49:44;8.00;99.90
1678;DHT22;6034;46.864;15.216;2022-12-29T15:52:13;8.10;99.90
1678;DHT22;6034;46.864;15.216;2022-12-29T15:54:44;8.10;99.90
1678;DHT22;6034;46.864;15.216;2022-12-29T15:57:15;8.00;99.90
1678;DHT22;6034;46.864;15.216;2022-12-29T15:59:47;8.10;99.90
1678;DHT22;6034;46.864;15.216;2022-12-29T16:02:15;8.10;99.90
1678;DHT22;6034;46.864;15.216;2022-12-29T16:04:43;8.00;99.90
1678;DHT22;6034;46.864;15.216;2022-12-29T16:07:21;7.90;99.90
1678;DHT22;6034;46.864;15.216;2022-12-29T16:09:53;7.70;99.90
1678;DHT22;6034;46.864;15.216;2022-12-29T16:12:21;7.70;99.90
1678;DHT22;6034;46.864;15.216;2022-12-29T16:14:50;7.70;99.90
1678;DHT22;6034;46.864;15.216;2022-12-29T16:17:20;7.70;99.90
1678;DHT22;6034;46.864;15.216;2022-12-29T16:19:48;7.70;99.90
1678;DHT22;6034;46.864;15.216;2022-12-29T16:22:17;7.80;99.90
1678;DHT22;6034;46.864;15.216;2022-12-29T16:24:46;7.80;99.90
1678;DHT22;6034;46.864;15.216;2022-12-29T16:27:15;7.70;99.90
1678;DHT22;6034;46.864;15.216;2022-12-29T16:29:46;7.70;99.90
1678;DHT22;6034;46.864;15.216;2022-12-29T16:32:24;7.70;99.90
1678;DHT22;6034;46.864;15.216;2022-12-29T16:34:52;7.70;99.90
1678;DHT22;6034;46.864;15.216;2022-12-29T16:37:28;7.70;99.90